Time;durP1;ratioP1;P1;durP2;ratioP2;P2;SDS_P1;SDS_P2;PMS_P1;PMS_P2;Temp;Humidity;BMP_temperature;BMP_pressure;BME280_temperature;BME280_humidity;BME280_pressure;Samples;Min_cycle;Max_cycle;Signal;HPM_P1;HPM_P2
2021/08/14 00:00:42;;;;;;;13.50;10.90;;;;;;;;;;753611;184;1018634;-65
2021/08/14 00:03:08;;;;;;;15.30;11.10;;;;;;;;;;759947;181;908492;-65
2021/08/14 00:05:34;;;;;;;14.27;10.37;;;;;;;;;;754995;184;919728;-66
2021/08/14 00:08:00;;;;;;;16.53;11.40;;;;;;;;;;753574;184;919730;-65
2021/08/14 00:10:26;;;;;;;16.50;12.10;;;;;;;;;;760619;184;906865;-65
2021/08/14 00:12:51;;;;;;;18.43;11.67;;;;;;;;;;756234;184;919511;-65
2021/08/14 00:15:17;;;;;;;22.47;12.57;;;;;;;;;;753632;182;918593;-65
2021/08/14 00:17:43;;;;;;;18.62;12.18;;;;;;;;;;758793;184;919012;-67
2021/08/14 00:20:10;;;;;;;21.20;13.40;;;;;;;;;;756292;183;919395;-65
2021/08/14 00:22:36;;;;;;;14.57;12.03;;;;;;;;;;756896;183;919380;-65
2021/08/14 00:25:01;;;;;;;15.60;13.20;;;;;;;;;;755187;183;931597;-64
2021/08/14 00:27:27;;;;;;;18.73;11.83;;;;;;;;;;762650;181;918682;-65
2021/08/14 00:29:53;;;;;;;18.60;13.07;;;;;;;;;;756819;183;919305;-65
2021/08/14 00:32:19;;;;;;;15.73;10.70;;;;;;;;;;755938;184;919118;-64
2021/08/14 00:34:45;;;;;;;14.07;11.33;;;;;;;;;;759231;182;918840;-65
2021/08/14 00:37:11;;;;;;;13.33;10.60;;;;;;;;;;753316;183;919179;-65
2021/08/14 00:39:37;;;;;;;11.10;9.93;;;;;;;;;;754627;182;918792;-65
2021/08/14 00:42:02;;;;;;;16.77;12.17;;;;;;;;;;758372;184;919123;-65
2021/08/14 00:44:28;;;;;;;13.63;10.60;;;;;;;;;;754975;181;918883;-65
2021/08/14 00:46:54;;;;;;;15.43;10.70;;;;;;;;;;755214;183;919774;-65
2021/08/14 00:49:20;;;;;;;15.13;11.20;;;;;;;;;;754103;183;918806;-64
2021/08/14 00:51:46;;;;;;;14.85;11.27;;;;;;;;;;750188;184;922574;-65
2021/08/14 00:54:11;;;;;;;21.10;12.00;;;;;;;;;;753707;182;919673;-65
2021/08/14 00:56:37;;;;;;;11.80;10.70;;;;;;;;;;753726;184;919672;-65
2021/08/14 00:59:03;;;;;;;14.07;11.77;;;;;;;;;;760034;181;918711;-64
2021/08/14 01:01:29;;;;;;;13.53;10.77;;;;;;;;;;754152;184;930823;-64
2021/08/14 01:03:56;;;;;;;17.27;11.55;;;;;;;;;;755341;184;919723;-65
2021/08/14 01:06:22;;;;;;;19.40;11.50;;;;;;;;;;759052;184;918582;-65
2021/08/14 01:08:48;;;;;;;17.50;11.20;;;;;;;;;;754824;184;915325;-64
2021/08/14 01:11:14;;;;;;;16.30;10.47;;;;;;;;;;754926;184;916035;-65
2021/08/14 01:13:40;;;;;;;13.73;11.97;;;;;;;;;;753794;182;921171;-64
2021/08/14 01:16:06;;;;;;;12.57;10.30;;;;;;;;;;760361;183;914553;-65
2021/08/14 01:18:32;;;;;;;20.33;11.70;;;;;;;;;;753387;184;919435;-65
2021/08/14 01:20:57;;;;;;;18.30;12.60;;;;;;;;;;753170;184;920504;-66
2021/08/14 01:23:23;;;;;;;13.57;11.03;;;;;;;;;;758647;184;919008;-65
2021/08/14 01:25:55;;;;;;;19.93;13.23;;;;;;;;;;755360;184;919282;-65
2021/08/14 01:28:21;;;;;;;17.37;13.20;;;;;;;;;;754364;184;938495;-65
2021/08/14 01:30:47;;;;;;;14.00;11.63;;;;;;;;;;757048;184;919295;-65
2021/08/14 01:33:13;;;;;;;18.63;12.40;;;;;;;;;;759163;180;916458;-65
2021/08/14 01:35:40;;;;;;;14.10;12.47;;;;;;;;;;755896;183;920676;-65
2021/08/14 01:38:06;;;;;;;19.55;12.82;;;;;;;;;;753926;183;1010265;-64
2021/08/14 01:40:33;;;;;;;18.33;13.90;;;;;;;;;;762145;183;919227;-64
2021/08/14 01:42:57;;;;;;;20.63;15.23;;;;;;;;;;755127;183;929656;-65
2021/08/14 01:45:23;;;;;;;16.83;14.10;;;;;;;;;;754331;183;923572;-67
2021/08/14 01:47:49;;;;;;;18.10;15.70;;;;;;;;;;760582;184;918007;-65
2021/08/14 01:50:15;;;;;;;16.57;14.57;;;;;;;;;;754528;182;1006083;-65
2021/08/14 01:52:41;;;;;;;19.10;13.40;;;;;;;;;;756953;184;918246;-65
2021/08/14 01:55:07;;;;;;;19.10;14.03;;;;;;;;;;759882;183;918581;-65
2021/08/14 01:57:33;;;;;;;22.50;13.53;;;;;;;;;;755598;181;920970;-65
2021/08/14 01:59:59;;;;;;;15.03;13.43;;;;;;;;;;753690;183;918949;-64
2021/08/14 02:02:25;;;;;;;20.07;13.40;;;;;;;;;;753064;183;918231;-64
2021/08/14 02:04:50;;;;;;;16.80;12.57;;;;;;;;;;760891;183;918202;-64
2021/08/14 02:07:16;;;;;;;27.33;13.37;;;;;;;;;;756514;184;917936;-64
2021/08/14 02:09:42;;;;;;;23.12;14.35;;;;;;;;;;753857;184;918796;-64
2021/08/14 02:12:08;;;;;;;20.07;14.23;;;;;;;;;;763372;184;919226;-64
2021/08/14 02:14:34;;;;;;;17.40;14.07;;;;;;;;;;754998;184;919042;-64
2021/08/14 02:17:00;;;;;;;19.33;13.83;;;;;;;;;;753974;184;919022;-64
2021/08/14 02:19:25;;;;;;;21.90;14.10;;;;;;;;;;758442;184;919636;-64
2021/08/14 02:21:51;;;;;;;15.88;14.23;;;;;;;;;;753904;184;919697;-65
2021/08/14 02:24:17;;;;;;;19.63;14.33;;;;;;;;;;754172;184;919429;-65
2021/08/14 02:26:43;;;;;;;20.77;16.37;;;;;;;;;;753998;184;918350;-65
2021/08/14 02:29:09;;;;;;;17.40;15.53;;;;;;;;;;760393;184;919697;-64
2021/08/14 02:31:35;;;;;;;15.83;14.13;;;;;;;;;;756258;182;917778;-65
2021/08/14 02:34:00;;;;;;;17.00;13.40;;;;;;;;;;754761;184;919359;-65
2021/08/14 02:36:26;;;;;;;20.10;13.47;;;;;;;;;;759068;181;919249;-65
2021/08/14 02:38:52;;;;;;;21.40;12.30;;;;;;;;;;754414;184;919302;-65
2021/08/14 02:41:18;;;;;;;18.10;13.07;;;;;;;;;;756944;184;919322;-64
2021/08/14 02:43:44;;;;;;;15.53;13.03;;;;;;;;;;760399;184;919122;-65
2021/08/14 02:46:10;;;;;;;18.67;14.17;;;;;;;;;;757673;181;919051;-64
2021/08/14 02:48:36;;;;;;;19.00;13.43;;;;;;;;;;756530;184;918879;-64
2021/08/14 02:51:02;;;;;;;14.33;12.83;;;;;;;;;;754784;183;1021455;-65
2021/08/14 02:53:28;;;;;;;17.13;13.73;;;;;;;;;;767574;181;919169;-66
2021/08/14 02:55:54;;;;;;;16.37;12.53;;;;;;;;;;754290;183;918904;-64
2021/08/14 02:58:20;;;;;;;16.23;12.57;;;;;;;;;;755659;183;923254;-63
2021/08/14 03:00:46;;;;;;;15.47;12.90;;;;;;;;;;760902;184;918307;-64
2021/08/14 03:03:13;;;;;;;16.57;13.57;;;;;;;;;;756380;184;919289;-64
2021/08/14 03:05:37;;;;;;;19.70;14.07;;;;;;;;;;742347;186;925501;-64
2021/08/14 03:08:03;;;;;;;16.10;14.23;;;;;;;;;;761653;184;919272;-64
2021/08/14 03:10:29;;;;;;;21.30;15.50;;;;;;;;;;755028;183;919077;-65
2021/08/14 03:12:55;;;;;;;16.00;14.03;;;;;;;;;;755028;183;918655;-63
2021/08/14 03:15:21;;;;;;;19.70;14.80;;;;;;;;;;758662;184;919304;-64
2021/08/14 03:17:47;;;;;;;15.13;13.50;;;;;;;;;;753790;183;941982;-65
2021/08/14 03:20:13;;;;;;;20.30;14.50;;;;;;;;;;752447;184;919799;-64
2021/08/14 03:22:38;;;;;;;21.37;15.63;;;;;;;;;;756311;182;920865;-65
2021/08/14 03:25:05;;;;;;;20.10;14.63;;;;;;;;;;762287;184;918474;-65
2021/08/14 03:27:31;;;;;;;21.13;14.70;;;;;;;;;;753680;184;920214;-63
2021/08/14 03:29:56;;;;;;;16.70;14.63;;;;;;;;;;756197;184;918061;-64
2021/08/14 03:32:22;;;;;;;16.80;13.40;;;;;;;;;;758781;184;917973;-64
2021/08/14 03:34:48;;;;;;;17.90;14.50;;;;;;;;;;755289;181;915951;-64
2021/08/14 03:37:14;;;;;;;25.73;14.47;;;;;;;;;;754638;184;916080;-63
2021/08/14 03:39:40;;;;;;;16.47;14.67;;;;;;;;;;759200;184;922739;-63
2021/08/14 03:42:06;;;;;;;18.50;16.53;;;;;;;;;;754000;181;919493;-64
2021/08/14 03:44:32;;;;;;;22.50;16.40;;;;;;;;;;752873;182;915957;-64
2021/08/14 03:46:57;;;;;;;20.43;15.97;;;;;;;;;;754014;184;918339;-64
2021/08/14 03:49:24;;;;;;;22.73;17.47;;;;;;;;;;756726;185;919014;-64
2021/08/14 03:51:49;;;;;;;20.60;17.77;;;;;;;;;;752969;181;919398;-64
2021/08/14 03:54:15;;;;;;;22.63;16.67;;;;;;;;;;755226;184;919660;-64
2021/08/14 03:56:41;;;;;;;26.07;15.90;;;;;;;;;;762422;184;918590;-63
2021/08/14 03:59:07;;;;;;;18.40;14.83;;;;;;;;;;756532;181;1060558;-64
2021/08/14 04:01:33;;;;;;;20.40;17.00;;;;;;;;;;756136;184;918852;-64
2021/08/14 04:03:58;;;;;;;19.00;16.63;;;;;;;;;;758788;185;919993;-64
2021/08/14 04:06:24;;;;;;;23.37;17.23;;;;;;;;;;756448;182;921053;-66
2021/08/14 04:08:50;;;;;;;20.37;17.83;;;;;;;;;;754660;184;918425;-64
2021/08/14 04:11:16;;;;;;;24.52;16.95;;;;;;;;;;755731;184;918952;-64
2021/08/14 04:13:42;;;;;;;21.73;16.20;;;;;;;;;;761642;183;920124;-64
2021/08/14 04:16:08;;;;;;;20.70;17.87;;;;;;;;;;754746;181;919720;-64
2021/08/14 04:18:34;;;;;;;20.83;18.10;;;;;;;;;;753398;184;915483;-64
2021/08/14 04:21:00;;;;;;;22.90;17.10;;;;;;;;;;761242;183;919330;-64
2021/08/14 04:23:25;;;;;;;26.60;19.07;;;;;;;;;;755236;184;919687;-64
2021/08/14 04:25:51;;;;;;;33.80;21.40;;;;;;;;;;755755;184;918801;-63
2021/08/14 04:28:17;;;;;;;21.77;19.43;;;;;;;;;;762125;183;918623;-63
2021/08/14 04:30:43;;;;;;;26.03;20.50;;;;;;;;;;753907;184;918524;-64
2021/08/14 04:33:09;;;;;;;25.70;22.20;;;;;;;;;;754738;183;919094;-64
2021/08/14 04:35:35;;;;;;;28.40;24.63;;;;;;;;;;755169;184;1341773;-63
2021/08/14 04:38:01;;;;;;;27.60;24.37;;;;;;;;;;753421;184;919173;-63
2021/08/14 04:40:26;;;;;;;30.57;26.27;;;;;;;;;;753987;184;919584;-62
2021/08/14 04:42:52;;;;;;;33.97;26.98;;;;;;;;;;752553;184;919949;-63
2021/08/14 04:45:18;;;;;;;35.70;28.37;;;;;;;;;;761032;184;919257;-63
2021/08/14 04:47:44;;;;;;;34.37;26.10;;;;;;;;;;749287;184;2045237;-64
2021/08/14 04:50:10;;;;;;;30.90;26.80;;;;;;;;;;754724;184;919002;-64
2021/08/14 04:52:36;;;;;;;34.37;26.63;;;;;;;;;;761331;182;919768;-64
2021/08/14 04:55:01;;;;;;;36.60;28.70;;;;;;;;;;753656;181;918591;-63
2021/08/14 04:57:27;;;;;;;35.17;30.47;;;;;;;;;;754261;184;918317;-65
2021/08/14 04:59:53;;;;;;;35.13;28.80;;;;;;;;;;759407;184;919792;-66
2021/08/14 05:02:19;;;;;;;34.47;26.67;;;;;;;;;;753808;184;918894;-64
2021/08/14 05:04:45;;;;;;;30.85;25.92;;;;;;;;;;754361;183;919900;-67
2021/08/14 05:07:11;;;;;;;31.57;26.33;;;;;;;;;;756397;183;939467;-64
2021/08/14 05:09:37;;;;;;;26.80;23.77;;;;;;;;;;754915;181;918919;-64
2021/08/14 05:12:02;;;;;;;31.00;24.87;;;;;;;;;;755699;181;919698;-65
2021/08/14 05:14:28;;;;;;;30.90;24.40;;;;;;;;;;754990;183;920912;-64
2021/08/14 05:16:54;;;;;;;30.80;22.60;;;;;;;;;;762531;183;916561;-64
2021/08/14 05:19:20;;;;;;;27.50;23.33;;;;;;;;;;756787;182;917623;-64
2021/08/14 05:21:46;;;;;;;29.73;23.17;;;;;;;;;;755336;183;918575;-64
2021/08/14 05:24:12;;;;;;;29.13;23.20;;;;;;;;;;759775;184;919379;-63
2021/08/14 05:26:38;;;;;;;27.30;21.20;;;;;;;;;;754289;182;919066;-64
2021/08/14 05:29:03;;;;;;;24.25;20.70;;;;;;;;;;757421;183;919480;-64
2021/08/14 05:31:29;;;;;;;24.30;20.47;;;;;;;;;;758660;184;918933;-64
2021/08/14 05:34:01;;;;;;;28.77;19.67;;;;;;;;;;751714;184;922452;-65
2021/08/14 05:36:21;;;;;;;22.90;19.30;;;;;;;;;;754260;181;920137;-65
2021/08/14 05:38:47;;;;;;;30.57;22.60;;;;;;;;;;754585;183;915763;-65
2021/08/14 05:41:13;;;;;;;25.93;21.03;;;;;;;;;;759708;185;915562;-64
2021/08/14 05:43:39;;;;;;;23.77;19.27;;;;;;;;;;755887;183;919651;-64
2021/08/14 05:46:04;;;;;;;20.50;18.27;;;;;;;;;;753972;184;919847;-64
2021/08/14 05:48:30;;;;;;;20.03;17.60;;;;;;;;;;756963;184;919372;-65
2021/08/14 05:50:56;;;;;;;24.03;20.13;;;;;;;;;;755475;184;918491;-65
2021/08/14 05:53:22;;;;;;;24.27;17.60;;;;;;;;;;756585;184;919181;-65
2021/08/14 05:55:48;;;;;;;22.50;19.40;;;;;;;;;;758763;184;918941;-65
2021/08/14 05:58:14;;;;;;;30.13;18.30;;;;;;;;;;752008;182;919825;-66
2021/08/14 06:00:39;;;;;;;21.77;17.60;;;;;;;;;;754596;184;919037;-66
2021/08/14 06:03:05;;;;;;;20.70;16.23;;;;;;;;;;753593;184;920306;-65
2021/08/14 06:05:31;;;;;;;18.17;15.67;;;;;;;;;;756789;184;918607;-64
2021/08/14 06:07:57;;;;;;;14.10;12.70;;;;;;;;;;751715;184;919338;-67
2021/08/14 06:10:23;;;;;;;17.40;15.13;;;;;;;;;;750350;184;917480;-66
2021/08/14 06:12:49;;;;;;;15.30;12.50;;;;;;;;;;759308;184;918415;-66
2021/08/14 06:15:15;;;;;;;13.00;10.43;;;;;;;;;;756119;184;914910;-66
2021/08/14 06:17:40;;;;;;;13.87;11.57;;;;;;;;;;756076;182;926632;-66
2021/08/14 06:20:07;;;;;;;12.73;10.67;;;;;;;;;;760323;182;917751;-65
2021/08/14 06:22:35;;;;;;;12.23;11.00;;;;;;;;;;757373;183;917791;-66
2021/08/14 06:24:58;;;;;;;13.18;10.35;;;;;;;;;;756499;183;919388;-67
2021/08/14 06:27:24;;;;;;;11.17;9.50;;;;;;;;;;754906;181;919707;-65
2021/08/14 06:29:50;;;;;;;14.40;11.33;;;;;;;;;;755349;183;918505;-66
2021/08/14 06:32:16;;;;;;;12.80;9.90;;;;;;;;;;753022;184;918420;-66
2021/08/14 06:34:42;;;;;;;10.20;9.10;;;;;;;;;;753086;184;1020901;-66
2021/08/14 06:37:08;;;;;;;11.70;9.60;;;;;;;;;;759060;183;919350;-66
2021/08/14 06:39:33;;;;;;;9.97;8.90;;;;;;;;;;755161;183;919785;-65
2021/08/14 06:41:59;;;;;;;9.70;8.17;;;;;;;;;;754207;183;920312;-65
2021/08/14 06:44:25;;;;;;;13.00;8.60;;;;;;;;;;760530;183;918007;-67
2021/08/14 06:46:51;;;;;;;12.87;9.73;;;;;;;;;;758093;183;918674;-66
2021/08/14 06:49:17;;;;;;;8.87;7.97;;;;;;;;;;757900;183;917883;-65
2021/08/14 06:51:43;;;;;;;15.30;7.93;;;;;;;;;;758593;183;911653;-66
2021/08/14 06:54:09;;;;;;;14.97;9.60;;;;;;;;;;752912;182;919226;-66
2021/08/14 06:56:34;;;;;;;11.13;7.97;;;;;;;;;;751942;182;989893;-66
2021/08/14 06:59:00;;;;;;;15.23;9.07;;;;;;;;;;753294;184;919537;-67
2021/08/14 07:01:26;;;;;;;13.00;8.53;;;;;;;;;;758644;185;919011;-66
2021/08/14 07:03:52;;;;;;;11.07;8.80;;;;;;;;;;755356;184;919673;-65
2021/08/14 07:06:20;;;;;;;11.60;8.40;;;;;;;;;;753261;184;940373;-66
2021/08/14 07:08:46;;;;;;;8.77;7.87;;;;;;;;;;758830;184;921668;-66
2021/08/14 07:11:11;;;;;;;9.57;8.10;;;;;;;;;;755269;183;966654;-67
2021/08/14 07:13:37;;;;;;;10.52;8.15;;;;;;;;;;755329;181;1022112;-66
2021/08/14 07:16:03;;;;;;;11.80;8.73;;;;;;;;;;760538;181;920382;-66
2021/08/14 07:18:29;;;;;;;16.10;8.10;;;;;;;;;;752944;184;921981;-67
2021/08/14 07:20:55;;;;;;;13.07;9.33;;;;;;;;;;753617;184;921122;-67
2021/08/14 07:23:21;;;;;;;11.70;7.63;;;;;;;;;;754615;181;914227;-66
2021/08/14 07:25:47;;;;;;;8.70;7.80;;;;;;;;;;761125;184;896110;-67
2021/08/14 07:28:12;;;;;;;10.70;8.97;;;;;;;;;;756620;182;920484;-67
2021/08/14 07:30:38;;;;;;;9.13;8.15;;;;;;;;;;759169;183;899248;-68
2021/08/14 07:33:04;;;;;;;10.23;8.70;;;;;;;;;;759068;183;1137018;-66
2021/08/14 07:35:30;;;;;;;10.90;8.73;;;;;;;;;;755402;180;1022826;-68
2021/08/14 07:37:56;;;;;;;11.83;8.40;;;;;;;;;;760008;183;608830;-67
2021/08/14 07:40:23;;;;;;;14.37;8.73;;;;;;;;;;759766;184;915264;-65
2021/08/14 07:42:47;;;;;;;9.50;8.07;;;;;;;;;;756019;182;919310;-67
2021/08/14 07:45:17;;;;;;;8.73;7.23;;;;;;;;;;754298;183;926894;-67
2021/08/14 07:47:40;;;;;;;9.40;8.40;;;;;;;;;;754032;181;919466;-67
2021/08/14 07:50:06;;;;;;;10.80;9.37;;;;;;;;;;754296;183;921617;-67
2021/08/14 07:52:32;;;;;;;9.50;8.40;;;;;;;;;;757355;184;919268;-67
2021/08/14 07:54:58;;;;;;;9.63;8.50;;;;;;;;;;753020;183;918030;-67
2021/08/14 07:57:24;;;;;;;11.60;8.17;;;;;;;;;;758916;183;918740;-66
2021/08/14 07:59:50;;;;;;;12.90;9.77;;;;;;;;;;754501;183;919811;-64
2021/08/14 08:02:16;;;;;;;15.53;8.70;;;;;;;;;;755847;183;917604;-67
2021/08/14 08:04:41;;;;;;;19.23;9.63;;;;;;;;;;758618;183;921157;-67
2021/08/14 08:07:07;;;;;;;12.53;8.87;;;;;;;;;;755540;184;918936;-67
2021/08/14 08:09:33;;;;;;;13.60;8.77;;;;;;;;;;753553;184;1123973;-67
2021/08/14 08:11:59;;;;;;;10.00;9.00;;;;;;;;;;757628;184;883435;-66
2021/08/14 08:14:25;;;;;;;12.70;9.47;;;;;;;;;;764164;180;633754;-67
2021/08/14 08:16:51;;;;;;;10.30;8.50;;;;;;;;;;753198;184;915717;-66
2021/08/14 08:19:16;;;;;;;13.40;9.43;;;;;;;;;;753273;184;917049;-68
2021/08/14 08:21:42;;;;;;;15.00;8.27;;;;;;;;;;760781;184;919820;-67
2021/08/14 08:24:08;;;;;;;12.73;9.43;;;;;;;;;;754731;184;915210;-68
2021/08/14 08:26:34;;;;;;;10.33;9.20;;;;;;;;;;753248;184;919443;-67
2021/08/14 08:29:00;;;;;;;12.60;9.47;;;;;;;;;;758220;184;919437;-66
2021/08/14 08:31:27;;;;;;;13.10;8.43;;;;;;;;;;755871;184;918311;-68
2021/08/14 08:33:53;;;;;;;16.90;10.57;;;;;;;;;;754798;181;942113;-67
2021/08/14 08:36:21;;;;;;;14.63;9.80;;;;;;;;;;755834;184;942302;-68
2021/08/14 08:38:45;;;;;;;17.20;8.93;;;;;;;;;;755441;184;918613;-67
2021/08/14 08:41:11;;;;;;;11.07;8.00;;;;;;;;;;756145;184;918513;-67
2021/08/14 08:43:40;;;;;;;11.88;8.65;;;;;;;;;;755223;184;919033;-67
2021/08/14 08:46:02;;;;;;;12.77;9.30;;;;;;;;;;760962;184;936612;-67
2021/08/14 08:48:28;;;;;;;9.73;8.73;;;;;;;;;;755443;181;918923;-68
2021/08/14 08:50:54;;;;;;;13.30;9.87;;;;;;;;;;754747;184;921423;-68
2021/08/14 08:53:20;;;;;;;12.13;10.30;;;;;;;;;;761097;184;918359;-67
2021/08/14 08:55:46;;;;;;;13.90;9.27;;;;;;;;;;755642;181;921904;-67
2021/08/14 08:58:12;;;;;;;11.30;8.27;;;;;;;;;;754600;183;917737;-67
2021/08/14 09:00:37;;;;;;;10.40;8.40;;;;;;;;;;758097;183;921563;-67
2021/08/14 09:03:04;;;;;;;12.50;9.17;;;;;;;;;;755107;183;919145;-67
2021/08/14 09:05:30;;;;;;;13.13;9.90;;;;;;;;;;755227;182;917922;-68
2021/08/14 09:07:56;;;;;;;16.53;10.30;;;;;;;;;;753927;183;928783;-69
2021/08/14 09:10:21;;;;;;;12.70;9.30;;;;;;;;;;757925;184;919038;-66
2021/08/14 09:12:47;;;;;;;16.53;10.70;;;;;;;;;;755786;183;919645;-67
2021/08/14 09:15:19;;;;;;;12.50;9.00;;;;;;;;;;755710;183;919157;-66
2021/08/14 09:17:43;;;;;;;15.30;10.17;;;;;;;;;;758195;183;942833;-67
2021/08/14 09:20:12;;;;;;;13.00;10.40;;;;;;;;;;754740;184;919192;-68
2021/08/14 09:22:38;;;;;;;12.57;9.50;;;;;;;;;;755766;184;918565;-68
2021/08/14 09:25:10;;;;;;;14.70;10.13;;;;;;;;;;753277;182;920161;-68
2021/08/14 09:27:35;;;;;;;14.37;10.33;;;;;;;;;;758722;184;894681;-68
2021/08/14 09:30:01;;;;;;;14.80;9.40;;;;;;;;;;753319;184;918306;-68
2021/08/14 09:32:27;;;;;;;12.93;8.80;;;;;;;;;;752442;184;922058;-68
2021/08/14 09:34:53;;;;;;;12.90;9.90;;;;;;;;;;759941;184;924768;-68
2021/08/14 09:37:19;;;;;;;11.27;9.47;;;;;;;;;;741131;184;919748;-67
2021/08/14 09:39:51;;;;;;;10.63;9.53;;;;;;;;;;752800;184;1227655;-68
2021/08/14 09:42:16;;;;;;;10.13;8.67;;;;;;;;;;753020;183;918795;-68
2021/08/14 09:44:42;;;;;;;10.80;9.10;;;;;;;;;;758467;184;919629;-67
2021/08/14 09:47:10;;;;;;;16.70;9.27;;;;;;;;;;754651;184;918935;-67
2021/08/14 09:49:40;;;;;;;16.67;9.37;;;;;;;;;;752721;184;920158;-68
2021/08/14 09:52:23;;;;;;;13.10;9.70;;;;;;;;;;756267;183;918412;-66
2021/08/14 09:54:48;;;;;;;16.77;10.87;;;;;;;;;;756242;183;918495;-68
2021/08/14 09:57:14;;;;;;;14.80;9.50;;;;;;;;;;761217;183;917320;-68
2021/08/14 09:59:40;;;;;;;12.33;9.47;;;;;;;;;;753833;183;913913;-69
2021/08/14 10:02:06;;;;;;;15.27;9.63;;;;;;;;;;754730;181;915799;-68
2021/08/14 10:04:32;;;;;;;27.43;9.50;;;;;;;;;;760230;183;915267;-67
2021/08/14 10:06:58;;;;;;;10.80;9.13;;;;;;;;;;755788;181;913704;-68
2021/08/14 10:09:23;;;;;;;10.87;8.93;;;;;;;;;;754590;183;915271;-69
2021/08/14 10:11:51;;;;;;;11.90;9.90;;;;;;;;;;758549;182;915501;-68
2021/08/14 10:14:15;;;;;;;13.20;9.27;;;;;;;;;;749435;181;915974;-69
2021/08/14 10:16:41;;;;;;;13.60;9.00;;;;;;;;;;753837;183;918036;-68
2021/08/14 10:19:07;;;;;;;10.67;8.73;;;;;;;;;;754781;184;919865;-68
2021/08/14 10:21:33;;;;;;;10.90;9.50;;;;;;;;;;761839;182;914986;-68
2021/08/14 10:23:58;;;;;;;15.50;9.30;;;;;;;;;;753287;184;924675;-69
2021/08/14 10:26:25;;;;;;;12.43;9.80;;;;;;;;;;753631;181;918183;-69
2021/08/14 10:28:52;;;;;;;10.20;9.17;;;;;;;;;;758617;184;915269;-68
2021/08/14 10:31:24;;;;;;;9.57;8.27;;;;;;;;;;752737;184;1200862;-68
2021/08/14 10:33:49;;;;;;;10.20;9.03;;;;;;;;;;754846;181;919741;-67
2021/08/14 10:36:31;;;;;;;15.70;9.90;;;;;;;;;;753844;184;921063;-69
2021/08/14 10:38:58;;;;;;;15.73;9.10;;;;;;;;;;753125;184;918238;-70
2021/08/14 10:41:23;;;;;;;10.70;9.10;;;;;;;;;;756151;183;915225;-69
2021/08/14 10:44:00;;;;;;;13.77;9.90;;;;;;;;;;752383;184;916457;-69
2021/08/14 10:46:34;;;;;;;14.77;8.97;;;;;;;;;;753393;181;918924;-68
2021/08/14 10:49:00;;;;;;;15.07;8.30;;;;;;;;;;753708;181;915544;-68
2021/08/14 10:51:33;;;;;;;13.13;9.40;;;;;;;;;;760569;183;914640;-68
2021/08/14 10:53:59;;;;;;;12.23;9.30;;;;;;;;;;757785;184;918582;-68
2021/08/14 10:56:31;;;;;;;13.73;9.03;;;;;;;;;;753650;183;1036767;-69
2021/08/14 10:58:57;;;;;;;9.97;8.90;;;;;;;;;;757246;181;922493;-67
2021/08/14 11:01:31;;;;;;;12.70;9.30;;;;;;;;;;758392;184;914526;-68
2021/08/14 11:03:56;;;;;;;10.40;7.97;;;;;;;;;;760083;183;918756;-70
2021/08/14 11:06:26;;;;;;;12.20;9.20;;;;;;;;;;755587;183;918989;-70
2021/08/14 11:08:58;;;;;;;13.80;8.25;;;;;;;;;;754449;183;1072387;-71
2021/08/14 11:11:29;;;;;;;12.23;9.00;;;;;;;;;;754777;183;918709;-69
2021/08/14 11:14:01;;;;;;;12.93;10.00;;;;;;;;;;763758;183;918111;-69
2021/08/14 11:16:33;;;;;;;10.40;9.30;;;;;;;;;;754435;183;918994;-70
2021/08/14 11:19:00;;;;;;;10.40;8.20;;;;;;;;;;755806;183;919796;-68
2021/08/14 11:21:43;;;;;;;13.10;9.33;;;;;;;;;;754199;183;921114;-68
2021/08/14 11:24:09;;;;;;;9.53;8.33;;;;;;;;;;754348;181;919013;-69
2021/08/14 11:26:35;;;;;;;10.17;8.80;;;;;;;;;;759075;184;919323;-69
2021/08/14 11:29:01;;;;;;;9.47;7.07;;;;;;;;;;759186;183;916903;-68
2021/08/14 11:31:27;;;;;;;9.53;8.50;;;;;;;;;;754757;184;918362;-69
2021/08/14 11:33:52;;;;;;;12.40;7.77;;;;;;;;;;761403;184;918452;-69
2021/08/14 11:36:18;;;;;;;11.13;8.67;;;;;;;;;;752220;184;918136;-69
2021/08/14 11:38:44;;;;;;;9.47;8.20;;;;;;;;;;758411;181;623010;-69
2021/08/14 11:41:10;;;;;;;12.37;8.37;;;;;;;;;;760324;184;627344;-69
2021/08/14 11:43:36;;;;;;;10.03;8.17;;;;;;;;;;762351;182;619882;-69
2021/08/14 11:46:02;;;;;;;9.80;7.70;;;;;;;;;;754805;184;919533;-68
2021/08/14 11:48:28;;;;;;;14.67;8.00;;;;;;;;;;754367;184;918567;-69
2021/08/14 11:50:55;;;;;;;8.67;7.77;;;;;;;;;;762062;184;637412;-68
2021/08/14 11:53:22;;;;;;;11.80;8.40;;;;;;;;;;759159;184;636669;-67
2021/08/14 11:55:48;;;;;;;9.20;8.20;;;;;;;;;;754855;182;919191;-69
2021/08/14 11:58:14;;;;;;;9.33;7.97;;;;;;;;;;758407;181;917927;-67
2021/08/14 12:00:39;;;;;;;8.70;7.17;;;;;;;;;;753483;184;919068;-68
2021/08/14 12:03:10;;;;;;;14.13;9.77;;;;;;;;;;752457;184;919170;-68
2021/08/14 12:05:39;;;;;;;11.00;9.57;;;;;;;;;;753258;184;1025254;-69
2021/08/14 12:08:05;;;;;;;10.10;8.37;;;;;;;;;;758030;182;920294;-68
2021/08/14 12:10:31;;;;;;;9.70;7.60;;;;;;;;;;753471;184;919407;-69
2021/08/14 12:13:05;;;;;;;10.23;9.20;;;;;;;;;;754863;184;919370;-69
2021/08/14 12:15:48;;;;;;;18.40;8.63;;;;;;;;;;756259;181;1021403;-69
2021/08/14 12:18:14;;;;;;;10.07;8.20;;;;;;;;;;756456;181;918161;-70
2021/08/14 12:20:39;;;;;;;10.43;8.80;;;;;;;;;;762155;184;920934;-69
2021/08/14 12:23:11;;;;;;;13.10;9.50;;;;;;;;;;756280;181;919492;-69
2021/08/14 12:25:37;;;;;;;14.70;10.07;;;;;;;;;;755905;183;918216;-69
2021/08/14 12:28:07;;;;;;;10.50;9.30;;;;;;;;;;751933;183;919484;-68
2021/08/14 12:30:33;;;;;;;15.93;9.57;;;;;;;;;;760754;181;915863;-69
2021/08/14 12:32:58;;;;;;;9.60;8.60;;;;;;;;;;757828;183;629068;-70
2021/08/14 12:35:24;;;;;;;14.63;9.47;;;;;;;;;;756104;183;1016895;-70
2021/08/14 12:37:50;;;;;;;12.13;9.63;;;;;;;;;;760314;182;915273;-70
2021/08/14 12:40:19;;;;;;;10.50;8.47;;;;;;;;;;757422;182;915058;-69
2021/08/14 12:42:45;;;;;;;9.80;7.60;;;;;;;;;;754450;184;918174;-69
2021/08/14 12:45:11;;;;;;;20.70;10.90;;;;;;;;;;758883;183;919534;-69
2021/08/14 12:47:37;;;;;;;20.90;8.40;;;;;;;;;;759705;183;918996;-69
2021/08/14 12:50:06;;;;;;;10.23;9.17;;;;;;;;;;758629;183;918433;-70
2021/08/14 12:52:32;;;;;;;13.70;7.87;;;;;;;;;;757429;184;918933;-70
2021/08/14 12:54:58;;;;;;;9.97;7.70;;;;;;;;;;758679;184;919110;-70
2021/08/14 12:57:24;;;;;;;10.80;9.17;;;;;;;;;;752171;184;918355;-69
2021/08/14 12:59:50;;;;;;;19.50;8.77;;;;;;;;;;751804;184;919471;-70
2021/08/14 13:02:16;;;;;;;12.02;7.97;;;;;;;;;;754880;184;931294;-69
2021/08/14 13:04:42;;;;;;;11.67;8.43;;;;;;;;;;755756;184;919360;-71
2021/08/14 13:07:08;;;;;;;11.03;7.57;;;;;;;;;;752427;182;917956;-68
2021/08/14 13:09:33;;;;;;;10.53;7.77;;;;;;;;;;752037;182;919212;-71
2021/08/14 13:11:59;;;;;;;11.17;6.80;;;;;;;;;;757431;184;919286;-70
2021/08/14 13:14:25;;;;;;;9.70;7.57;;;;;;;;;;754799;184;918858;-70
2021/08/14 13:16:51;;;;;;;8.07;7.20;;;;;;;;;;755202;184;918833;-71
2021/08/14 13:19:17;;;;;;;7.63;6.37;;;;;;;;;;757882;183;918556;-70
2021/08/14 13:21:43;;;;;;;8.83;6.90;;;;;;;;;;755051;184;919060;-71
2021/08/14 13:24:08;;;;;;;14.47;7.00;;;;;;;;;;757078;181;919639;-70
2021/08/14 13:26:34;;;;;;;8.40;7.37;;;;;;;;;;758074;183;920541;-70
2021/08/14 13:29:00;;;;;;;11.07;7.70;;;;;;;;;;742952;181;3629665;-70
2021/08/14 13:31:26;;;;;;;24.57;7.43;;;;;;;;;;757222;183;919936;-69
2021/08/14 13:33:52;;;;;;;8.97;7.40;;;;;;;;;;756392;182;918931;-69
2021/08/14 13:36:18;;;;;;;13.20;8.70;;;;;;;;;;762128;183;918455;-70
2021/08/14 13:38:43;;;;;;;8.37;7.37;;;;;;;;;;757346;184;919486;-70
2021/08/14 13:41:09;;;;;;;9.40;7.83;;;;;;;;;;759503;183;630324;-70
2021/08/14 13:43:35;;;;;;;8.60;7.67;;;;;;;;;;759475;184;919180;-70
2021/08/14 13:46:01;;;;;;;15.13;7.70;;;;;;;;;;750914;183;1737689;-69
2021/08/14 13:48:27;;;;;;;9.77;7.23;;;;;;;;;;754018;183;919092;-69
2021/08/14 13:50:53;;;;;;;10.37;7.43;;;;;;;;;;757746;184;918812;-69
2021/08/14 13:53:18;;;;;;;10.53;7.60;;;;;;;;;;753150;183;918725;-70
2021/08/14 13:55:44;;;;;;;11.83;7.43;;;;;;;;;;753362;184;925641;-69
2021/08/14 13:58:10;;;;;;;10.37;7.67;;;;;;;;;;753375;185;920462;-70
2021/08/14 14:00:36;;;;;;;10.67;7.30;;;;;;;;;;755771;181;918457;-70
2021/08/14 14:03:02;;;;;;;9.00;6.73;;;;;;;;;;755282;182;918737;-71
2021/08/14 14:05:28;;;;;;;11.38;6.55;;;;;;;;;;751308;184;1213550;-69